createdAt,value
2019-02-20T00:02:18.244Z,99253.81
2019-02-20T00:04:48.137Z,99255.73
2019-02-20T00:07:17.725Z,99256.81
2019-02-20T00:09:47.313Z,99255.36
2019-02-20T00:12:16.907Z,99252.14
2019-02-20T00:14:46.466Z,99259.87
2019-02-20T00:17:16.053Z,99264.78
2019-02-20T00:19:46.073Z,99268.97
2019-02-20T00:22:15.657Z,99266.61
2019-02-20T00:24:45.246Z,99268.45
2019-02-20T00:27:14.929Z,99271.02
2019-02-20T00:29:44.558Z,99272.59
2019-02-20T00:32:14.145Z,99268.95
2019-02-20T00:34:43.717Z,99267.93
2019-02-20T00:37:13.327Z,99262.20
2019-02-20T00:39:42.909Z,99267.34
2019-02-20T00:42:12.498Z,99264.98
2019-02-20T00:44:43.685Z,99262.33
2019-02-20T00:47:14.838Z,99262.21
2019-02-20T00:49:44.493Z,99266.38
2019-02-20T00:52:15.700Z,99262.03
2019-02-20T00:54:45.352Z,99268.02
2019-02-20T00:57:14.927Z,99266.77
2019-02-20T00:59:44.496Z,99270.88
2019-02-20T01:02:14.074Z,99269.23
2019-02-20T01:04:45.623Z,99269.25
2019-02-20T01:07:15.201Z,99266.67
2019-02-20T01:09:44.767Z,99271.91
2019-02-20T01:12:14.720Z,99270.17
2019-02-20T01:14:44.319Z,99274.40
2019-02-20T01:17:13.947Z,99277.28
2019-02-20T01:19:43.610Z,99283.02
2019-02-20T01:22:13.193Z,99281.48
2019-02-20T01:24:42.789Z,99284.69
2019-02-20T01:27:31.677Z,99279.05
2019-02-20T01:30:01.262Z,99287.30
2019-02-20T01:32:30.814Z,99282.98
2019-02-20T01:35:00.449Z,99281.14
2019-02-20T01:37:30.049Z,99277.59
2019-02-20T01:39:59.722Z,99269.31
2019-02-20T01:42:31.005Z,99267.16
2019-02-20T01:45:00.654Z,99268.79
2019-02-20T01:47:30.259Z,99270.91
2019-02-20T01:49:59.826Z,99270.69
2019-02-20T01:52:29.462Z,99269.63
2019-02-20T01:54:59.052Z,99266.05
2019-02-20T01:57:28.668Z,99265.65
2019-02-20T01:59:58.238Z,99262.36
2019-02-20T02:02:27.854Z,99267.33
2019-02-20T02:04:57.409Z,99262.83
2019-02-20T02:07:28.031Z,99263.21
2019-02-20T02:09:57.622Z,99256.27
2019-02-20T02:12:27.228Z,99256.31
2019-02-20T02:14:56.830Z,99250.83
2019-02-20T02:17:26.388Z,99244.91
2019-02-20T02:19:55.999Z,99245.13
2019-02-20T02:22:25.582Z,99255.91
2019-02-20T02:24:55.161Z,99258.66
2019-02-20T02:27:25.172Z,99262.64
2019-02-20T02:29:54.784Z,99259.20
2019-02-20T02:32:24.373Z,99260.13
2019-02-20T02:34:54.050Z,99259.32
2019-02-20T02:37:23.621Z,99258.47
2019-02-20T02:39:53.209Z,99261.72
2019-02-20T02:42:22.827Z,99257.36
2019-02-20T02:44:52.705Z,99254.02
2019-02-20T02:47:22.240Z,99251.23
2019-02-20T02:49:51.846Z,99253.91
2019-02-20T02:52:21.438Z,99248.89
2019-02-20T02:54:50.992Z,99249.07
2019-02-20T02:57:20.605Z,99250.19
2019-02-20T02:59:56.128Z,99248.48
2019-02-20T03:02:25.694Z,99248.09
2019-02-20T03:04:55.336Z,99246.48
2019-02-20T03:07:24.880Z,99240.58
2019-02-20T03:09:55.386Z,99244.61
2019-02-20T03:12:24.966Z,99251.94
2019-02-20T03:14:54.647Z,99245.44
2019-02-20T03:17:24.231Z,99241.63
2019-02-20T03:19:53.817Z,99237.94
2019-02-20T03:22:23.422Z,99237.29
2019-02-20T03:24:53.029Z,99233.46
2019-02-20T03:27:22.869Z,99240.52
2019-02-20T03:29:54.767Z,99240.20
2019-02-20T03:32:24.410Z,99245.07
2019-02-20T03:34:54.029Z,99240.17
2019-02-20T03:37:23.687Z,99246.09
2019-02-20T03:39:53.243Z,99248.36
2019-02-20T03:42:22.845Z,99244.74
2019-02-20T03:44:52.426Z,99241.72
2019-02-20T03:47:23.569Z,99242.77
2019-02-20T03:49:53.172Z,99244.11
2019-02-20T03:52:22.781Z,99245.70
2019-02-20T03:54:52.436Z,99250.58
2019-02-20T03:57:22.247Z,99250.52
2019-02-20T03:59:51.880Z,99255.92
2019-02-20T04:02:21.422Z,99260.98
2019-02-20T04:04:51.036Z,99257.95
2019-02-20T04:07:20.611Z,99261.60
2019-02-20T04:09:50.178Z,99267.55
2019-02-20T04:12:20.693Z,99265.38
2019-02-20T04:14:50.532Z,99267.27
2019-02-20T04:17:20.098Z,99268.86
2019-02-20T04:19:49.831Z,99266.89
2019-02-20T04:22:19.461Z,99265.58
2019-02-20T04:24:49.061Z,99262.58
2019-02-20T04:27:18.728Z,99261.16
2019-02-20T04:29:49.765Z,99263.59
2019-02-20T04:32:19.368Z,99268.04
2019-02-20T04:34:48.994Z,99266.41
2019-02-20T04:37:18.526Z,99269.37
2019-02-20T04:39:48.152Z,99273.10
2019-02-20T04:42:17.781Z,99281.05
2019-02-20T04:44:47.445Z,99281.34
2019-02-20T04:47:17.012Z,99274.05
2019-02-20T04:49:46.608Z,99276.48
2019-02-20T04:52:16.205Z,99274.16
2019-02-20T04:54:45.962Z,99272.97
2019-02-20T04:57:15.571Z,99277.87
2019-02-20T04:59:45.132Z,99278.67
2019-02-20T05:02:14.725Z,99284.70
2019-02-20T05:04:44.695Z,99286.25
2019-02-20T05:07:14.251Z,99286.09
2019-02-20T05:09:43.820Z,99290.70
2019-02-20T05:12:13.456Z,99294.41
2019-02-20T05:14:43.005Z,99300.64
2019-02-20T05:17:12.600Z,99302.88
2019-02-20T05:19:42.249Z,99298.67
2019-02-20T05:22:11.875Z,99299.66
2019-02-20T05:24:41.470Z,99301.58
2019-02-20T05:27:11.286Z,99301.97
2019-02-20T05:29:40.977Z,99300.24
2019-02-20T05:32:10.588Z,99301.05
2019-02-20T05:34:40.366Z,99295.29
2019-02-20T05:37:09.979Z,99297.90
2019-02-20T05:39:39.569Z,99296.69
2019-02-20T05:42:09.161Z,99292.50
2019-02-20T05:44:38.742Z,99292.56
2019-02-20T05:47:11.222Z,99294.61
2019-02-20T05:49:40.870Z,99298.54
2019-02-20T05:52:10.426Z,99304.56
2019-02-20T05:54:40.105Z,99307.76
2019-02-20T05:57:09.792Z,99310.21
2019-02-20T05:59:39.391Z,99315.50
2019-02-20T06:02:08.980Z,99318.04
2019-02-20T06:04:38.592Z,99319.02
2019-02-20T06:07:08.158Z,99320.84
2019-02-20T06:09:37.778Z,99324.15
2019-02-20T06:12:07.392Z,99319.05
2019-02-20T06:14:38.550Z,99327.55
2019-02-20T06:17:09.160Z,99327.84
2019-02-20T06:19:38.761Z,99325.17
2019-02-20T06:22:08.371Z,99326.31
2019-02-20T06:24:44.086Z,99325.93
2019-02-20T06:27:09.336Z,99329.02
2019-02-20T06:29:38.901Z,99329.77
2019-02-20T06:32:08.481Z,99330.63
2019-02-20T06:34:38.266Z,99334.12
2019-02-20T06:37:07.862Z,99334.08
2019-02-20T06:39:37.443Z,99329.33
2019-02-20T06:42:07.133Z,99338.31
2019-02-20T06:44:36.712Z,99334.50
2019-02-20T06:47:06.301Z,99338.75
2019-02-20T06:49:35.914Z,99332.83
2019-02-20T06:52:05.501Z,99339.72
2019-02-20T06:54:35.093Z,99340.06
2019-02-20T06:57:04.925Z,99342.41
2019-02-20T06:59:34.506Z,99340.02
2019-02-20T07:02:04.222Z,99341.13
2019-02-20T07:04:34.014Z,99347.98
2019-02-20T07:07:08.748Z,99346.66
2019-02-20T07:09:43.157Z,99340.70
2019-02-20T07:12:17.246Z,99340.04
2019-02-20T07:14:51.304Z,99341.39
2019-02-20T07:17:25.347Z,99341.36
2019-02-20T07:19:59.423Z,99338.05
2019-02-20T07:22:33.499Z,99347.95
2019-02-20T07:25:07.462Z,99346.20
2019-02-20T07:27:41.509Z,99341.08
2019-02-20T07:30:11.759Z,99337.70
2019-02-20T07:32:41.319Z,99334.69
2019-02-20T07:35:11.095Z,99331.16
2019-02-20T07:37:40.713Z,99330.25
2019-02-20T07:40:10.737Z,99332.41
2019-02-20T07:42:40.529Z,99336.22
2019-02-20T07:45:11.751Z,99340.50
2019-02-20T07:47:41.483Z,99341.92
2019-02-20T07:50:13.124Z,99344.38
2019-02-20T07:52:42.747Z,99344.31
2019-02-20T07:55:13.635Z,99351.05
2019-02-20T07:57:43.631Z,99351.58
2019-02-20T08:00:15.384Z,99349.69
2019-02-20T08:02:45.098Z,99359.34
2019-02-20T08:05:16.662Z,99361.44
2019-02-20T08:07:46.220Z,99368.03
2019-02-20T08:10:15.835Z,99364.68
2019-02-20T08:12:45.431Z,99367.20
2019-02-20T08:15:15.075Z,99366.52
2019-02-20T08:17:44.842Z,99361.24
2019-02-20T08:20:14.412Z,99361.66
2019-02-20T08:22:44.005Z,99353.20
2019-02-20T08:25:22.227Z,99356.02
2019-02-20T08:27:45.166Z,99351.13
2019-02-20T08:30:15.669Z,99349.14
2019-02-20T08:32:45.247Z,99346.13
2019-02-20T08:35:14.931Z,99352.91
2019-02-20T08:37:44.513Z,99352.34
2019-02-20T08:40:15.860Z,99358.61
2019-02-20T08:42:45.700Z,99355.25
2019-02-20T08:45:15.548Z,99363.09
2019-02-20T08:47:45.136Z,99368.39
2019-02-20T08:50:16.785Z,99352.50
2019-02-20T08:52:46.318Z,99341.75
2019-02-20T08:55:19.145Z,99337.88
2019-02-20T08:57:48.948Z,99334.76
2019-02-20T09:00:18.690Z,99370.13
2019-02-20T09:02:48.290Z,99376.83
2019-02-20T09:05:19.005Z,99356.02
2019-02-20T09:07:48.649Z,99338.17
2019-02-20T09:10:18.535Z,99331.50
2019-02-20T09:13:07.589Z,99330.50
2019-02-20T09:15:37.351Z,99332.01
2019-02-20T09:18:06.959Z,99327.92
2019-02-20T09:20:36.519Z,99326.77
2019-02-20T09:23:06.099Z,99324.16
2019-02-20T09:25:41.584Z,99321.09
2019-02-20T09:28:07.521Z,99325.75
2019-02-20T09:30:37.097Z,99313.98
2019-02-20T09:33:06.760Z,99312.17
2019-02-20T09:35:36.404Z,99309.51
2019-02-20T09:38:05.985Z,99318.31
2019-02-20T09:40:36.709Z,99318.78
2019-02-20T09:43:06.373Z,99325.91
2019-02-20T09:45:41.979Z,99314.47
2019-02-20T09:48:10.494Z,99322.95
2019-02-20T09:50:42.829Z,99316.77
2019-02-20T09:53:12.418Z,99319.40
2019-02-20T09:56:03.009Z,99324.88
2019-02-20T09:58:32.579Z,99324.66
2019-02-20T10:01:03.009Z,99319.84
2019-02-20T10:03:32.689Z,99317.80
2019-02-20T10:06:02.312Z,99319.98
2019-02-20T10:08:31.901Z,99323.79
2019-02-20T10:11:01.532Z,99322.77
2019-02-20T10:13:31.157Z,99320.64
2019-02-20T10:16:00.762Z,99328.06
2019-02-20T10:18:30.365Z,99333.14
2019-02-20T10:20:59.969Z,99332.35
2019-02-20T10:23:29.595Z,99362.03
2019-02-20T10:26:01.116Z,99368.11
2019-02-20T10:28:31.025Z,99358.86
2019-02-20T10:31:00.635Z,99352.19
2019-02-20T10:33:30.235Z,99322.39
2019-02-20T10:35:59.824Z,99333.66
2019-02-20T10:38:29.429Z,99322.89
2019-02-20T10:40:59.077Z,99316.78
2019-02-20T10:43:31.554Z,99252.67
2019-02-20T10:46:09.156Z,99312.85
2019-02-20T10:48:40.655Z,99326.98
2019-02-20T10:51:10.231Z,99319.91
2019-02-20T10:53:40.020Z,99321.81
2019-02-20T10:56:09.862Z,99315.86
2019-02-20T10:58:41.307Z,99319.27
2019-02-20T11:01:10.995Z,99321.91
2019-02-20T11:03:40.655Z,99315.14
2019-02-20T11:06:10.251Z,99310.46
2019-02-20T11:08:42.645Z,99306.44
2019-02-20T11:11:12.251Z,99316.75
2019-02-20T11:13:42.473Z,99312.95
2019-02-20T11:16:12.115Z,99316.55
2019-02-20T11:19:00.987Z,99318.47
2019-02-20T11:21:30.606Z,99310.84
2019-02-20T11:24:01.225Z,99309.88
2019-02-20T11:26:30.862Z,99306.97
2019-02-20T11:29:00.461Z,99304.84
2019-02-20T11:31:31.565Z,99308.12
2019-02-20T11:34:01.908Z,99310.66
2019-02-20T11:36:31.709Z,99305.69
2019-02-20T11:39:05.099Z,99320.60
2019-02-20T11:41:36.652Z,99315.84
2019-02-20T11:44:09.241Z,99313.55
2019-02-20T11:46:38.930Z,99312.50
2019-02-20T11:49:09.055Z,99316.33
2019-02-20T11:51:38.657Z,99315.03
2019-02-20T11:54:08.304Z,99298.81
2019-02-20T11:56:37.914Z,99301.34
2019-02-20T11:59:07.663Z,99317.02
2019-02-20T12:01:37.267Z,99310.38
2019-02-20T12:04:07.621Z,99312.16
2019-02-20T12:06:38.752Z,99314.00
2019-02-20T12:09:09.391Z,99305.48
2019-02-20T12:11:39.104Z,99303.56
2019-02-20T12:14:08.824Z,99302.02
2019-02-20T12:16:40.715Z,99299.52
2019-02-20T12:19:10.488Z,99302.72
2019-02-20T12:21:40.059Z,99297.20
2019-02-20T12:24:11.901Z,99290.94
2019-02-20T12:26:42.107Z,99289.42
2019-02-20T12:29:14.169Z,99288.91
2019-02-20T12:32:03.041Z,99287.87
2019-02-20T12:34:32.655Z,99288.77
2019-02-20T12:37:02.289Z,99284.98
2019-02-20T12:39:31.932Z,99297.83
2019-02-20T12:42:01.666Z,99296.46
2019-02-20T12:44:31.245Z,99295.91
2019-02-20T12:47:00.866Z,99289.55
2019-02-20T12:49:30.527Z,99298.05
2019-02-20T12:52:00.193Z,99298.02
2019-02-20T12:54:29.867Z,99298.72
2019-02-20T12:56:59.485Z,99300.59
2019-02-20T12:59:29.059Z,99303.77
2019-02-20T13:01:58.697Z,99300.58
2019-02-20T13:04:28.527Z,99297.52
2019-02-20T13:06:59.409Z,99294.48
2019-02-20T13:09:29.558Z,99299.81
2019-02-20T13:11:59.192Z,99306.25
2019-02-20T13:14:28.815Z,99296.45
2019-02-20T13:16:58.445Z,99289.53
2019-02-20T13:19:28.316Z,99281.08
2019-02-20T13:21:59.450Z,99274.19
2019-02-20T13:24:32.019Z,99284.85
2019-02-20T13:27:07.635Z,99279.95
2019-02-20T13:29:32.914Z,99287.94
2019-02-20T13:32:02.490Z,99280.70
2019-02-20T13:34:32.146Z,99284.42
2019-02-20T13:37:01.712Z,99281.08
2019-02-20T13:39:34.599Z,99275.44
2019-02-20T13:42:10.782Z,99282.25
2019-02-20T13:44:40.589Z,99284.81
2019-02-20T13:47:10.176Z,99284.48
2019-02-20T13:49:39.915Z,99283.20
2019-02-20T13:52:09.709Z,99278.45
2019-02-20T13:54:39.307Z,99275.48
2019-02-20T13:57:09.102Z,99297.73
2019-02-20T13:59:39.095Z,99290.88
2019-02-20T14:02:08.751Z,99285.63
2019-02-20T14:04:38.349Z,99285.53
2019-02-20T14:07:07.965Z,99293.61
2019-02-20T14:09:37.531Z,99294.88
2019-02-20T14:12:07.309Z,99296.74
2019-02-20T14:14:37.223Z,99295.18
2019-02-20T14:17:06.866Z,99291.95
2019-02-20T14:19:38.317Z,99292.42
2019-02-20T14:22:09.422Z,99285.95
2019-02-20T14:24:38.979Z,99293.82
2019-02-20T14:27:11.162Z,99282.86
2019-02-20T14:29:41.374Z,99283.66
2019-02-20T14:32:10.985Z,99287.20
2019-02-20T14:34:42.051Z,99284.63
2019-02-20T14:37:16.311Z,99292.37
2019-02-20T14:39:45.907Z,99290.13
2019-02-20T14:42:18.705Z,99292.27
2019-02-20T14:44:57.893Z,99296.41
2019-02-20T14:47:29.083Z,99296.39
2019-02-20T14:49:58.654Z,99295.46
2019-02-20T14:52:28.289Z,99296.08
2019-02-20T14:54:59.646Z,99295.11
2019-02-20T14:57:29.215Z,99291.97
2019-02-20T14:59:58.693Z,99292.58
2019-02-20T15:02:29.978Z,99299.64
2019-02-20T15:04:59.658Z,99289.35
2019-02-20T15:07:29.253Z,99291.28
2019-02-20T15:10:03.599Z,99295.91
2019-02-20T15:12:33.150Z,99304.67
2019-02-20T15:15:10.377Z,99300.75
2019-02-20T15:17:35.534Z,99295.77
2019-02-20T15:20:07.052Z,99297.30
2019-02-20T15:22:37.127Z,99301.80
2019-02-20T15:25:09.423Z,99297.88
2019-02-20T15:27:39.265Z,99290.89
2019-02-20T15:30:13.731Z,99301.52
2019-02-20T15:32:43.314Z,99297.80
2019-02-20T15:35:13.761Z,99297.52
2019-02-20T15:37:43.423Z,99294.32
2019-02-20T15:40:13.498Z,99292.77
2019-02-20T15:42:43.105Z,99295.83
2019-02-20T15:45:13.612Z,99301.42
2019-02-20T15:47:43.173Z,99298.30
2019-02-20T15:50:15.148Z,99301.16
2019-02-20T15:52:44.738Z,99303.52
2019-02-20T15:55:14.840Z,99308.66
2019-02-20T15:57:44.513Z,99309.61
2019-02-20T16:00:20.676Z,99314.00
2019-02-20T16:02:52.004Z,99319.95
2019-02-20T16:05:21.529Z,99319.84
2019-02-20T16:07:51.137Z,99320.80
2019-02-20T16:10:21.604Z,99312.94
2019-02-20T16:12:51.339Z,99315.75
2019-02-20T16:15:24.206Z,99324.34
2019-02-20T16:17:53.544Z,99323.23
2019-02-20T16:20:23.312Z,99321.84
2019-02-20T16:22:52.903Z,99324.23
2019-02-20T16:25:28.416Z,99323.14
2019-02-20T16:27:58.050Z,99323.13
2019-02-20T16:30:30.477Z,99319.84
2019-02-20T16:33:00.818Z,99326.70
2019-02-20T16:35:30.661Z,99319.66
2019-02-20T16:38:00.243Z,99320.46
2019-02-20T16:40:29.899Z,99329.42
2019-02-20T16:42:59.683Z,99333.24
2019-02-20T16:45:29.414Z,99336.41
2019-02-20T16:48:05.048Z,99337.82
2019-02-20T16:50:34.652Z,99339.03
2019-02-20T16:53:04.232Z,99342.03
2019-02-20T16:55:33.826Z,99339.28
2019-02-20T16:58:04.078Z,99340.85
2019-02-20T17:00:34.134Z,99340.41
2019-02-20T17:03:03.703Z,99343.61
2019-02-20T17:05:33.751Z,99346.23
2019-02-20T17:08:03.381Z,99342.67
2019-02-20T17:10:33.129Z,99340.65
2019-02-20T17:13:02.942Z,99346.61
2019-02-20T17:15:33.899Z,99347.30
2019-02-20T17:18:03.476Z,99349.80
2019-02-20T17:20:33.079Z,99353.98
2019-02-20T17:23:02.750Z,99358.77
2019-02-20T17:25:32.435Z,99364.27
2019-02-20T17:28:05.867Z,99367.94
2019-02-20T17:30:33.415Z,99372.26
2019-02-20T17:33:03.204Z,99376.66
2019-02-20T17:35:34.484Z,99374.36
2019-02-20T17:38:04.119Z,99381.30
2019-02-20T17:40:33.769Z,99385.75
2019-02-20T17:43:06.925Z,99387.25
2019-02-20T17:45:36.437Z,99383.66
2019-02-20T17:48:06.009Z,99388.47
2019-02-20T17:50:35.610Z,99391.75
2019-02-20T17:53:06.672Z,99394.05
2019-02-20T17:55:36.296Z,99401.82
2019-02-20T17:58:14.574Z,99401.59
2019-02-20T18:00:40.338Z,99400.80
2019-02-20T18:03:10.093Z,99407.77
2019-02-20T18:05:41.962Z,99403.03
2019-02-20T18:08:33.530Z,99409.02
2019-02-20T18:11:02.854Z,99411.64
2019-02-20T18:13:33.871Z,99418.50
2019-02-20T18:16:04.940Z,99417.70
2019-02-20T18:18:53.835Z,99421.23
2019-02-20T18:21:26.776Z,99421.76
2019-02-20T18:24:08.903Z,99426.07
2019-02-20T18:26:38.379Z,99428.38
2019-02-20T18:29:07.940Z,99422.14
2019-02-20T18:31:38.353Z,99429.13
2019-02-20T18:34:09.581Z,99431.77
2019-02-20T18:36:44.778Z,99432.70
2019-02-20T18:39:14.373Z,99435.98
2019-02-20T18:41:43.952Z,99436.89
2019-02-20T18:44:13.584Z,99441.16
2019-02-20T18:46:43.124Z,99449.27
2019-02-20T18:49:14.164Z,99446.53
2019-02-20T18:51:43.774Z,99447.52
2019-02-20T18:54:13.370Z,99449.82
2019-02-20T18:56:42.974Z,99458.27
2019-02-20T18:59:12.467Z,99460.40
2019-02-20T19:01:42.175Z,99463.83
2019-02-20T19:04:31.266Z,99461.84
2019-02-20T19:07:03.853Z,99466.90
2019-02-20T19:09:33.506Z,99463.58
2019-02-20T19:12:07.591Z,99464.86
2019-02-20T19:14:43.097Z,99463.10
2019-02-20T19:17:17.019Z,99464.03
2019-02-20T19:19:51.026Z,99463.81
2019-02-20T19:22:25.115Z,99456.59
2019-02-20T19:25:00.401Z,99462.72
2019-02-20T19:27:34.511Z,99455.00
2019-02-20T19:30:09.786Z,99457.95
2019-02-20T19:35:22.732Z,99453.62
2019-02-20T19:38:06.112Z,99461.59
2019-02-20T19:43:09.437Z,99464.38
2019-02-20T19:48:30.509Z,99470.50
2019-02-20T19:51:04.564Z,99473.95
2019-02-20T19:53:43.067Z,99479.52
2019-02-20T19:56:20.358Z,99490.48
2019-02-20T19:58:57.655Z,99491.64
2019-02-20T20:01:30.567Z,99492.00
2019-02-20T20:04:04.983Z,99497.91
2019-02-20T20:06:58.019Z,99495.31
2019-02-20T20:09:32.110Z,99492.92
2019-02-20T20:12:06.143Z,99491.71
2019-02-20T20:14:57.957Z,99489.89
2019-02-20T20:17:31.996Z,99488.84
2019-02-20T20:20:23.831Z,99487.58
2019-02-20T20:22:58.193Z,99486.12
2019-02-20T20:25:32.554Z,99487.66
2019-02-20T20:30:48.177Z,99478.05
2019-02-20T20:36:01.287Z,99488.34
2019-02-20T20:38:53.224Z,99487.18
2019-02-20T20:41:27.319Z,99490.23
2019-02-20T20:44:01.367Z,99493.72
2019-02-20T20:46:35.424Z,99496.84
2019-02-20T20:51:48.620Z,99494.73
2019-02-20T20:54:22.673Z,99497.30
2019-02-20T20:56:58.370Z,99501.48
2019-02-20T20:59:33.251Z,99504.27
2019-02-20T21:02:07.316Z,99504.66
2019-02-20T21:04:41.334Z,99505.03
2019-02-20T21:07:16.104Z,99503.65
2019-02-20T21:09:53.194Z,99503.56
2019-02-20T21:12:27.800Z,99505.28
2019-02-20T21:15:07.448Z,99505.55
2019-02-20T21:17:41.495Z,99506.95
2019-02-20T21:20:15.904Z,99513.66
2019-02-20T21:22:51.029Z,99512.25
2019-02-20T21:25:25.336Z,99513.23
2019-02-20T21:27:59.377Z,99520.75
2019-02-20T21:30:36.425Z,99523.28
2019-02-20T21:33:16.005Z,99523.61
2019-02-20T21:35:50.068Z,99527.02
2019-02-20T21:38:30.128Z,99523.15
2019-02-20T21:41:04.205Z,99525.83
2019-02-20T21:43:38.247Z,99522.17
2019-02-20T21:46:12.671Z,99525.45
2019-02-20T21:48:46.687Z,99526.61
2019-02-20T21:51:20.899Z,99530.70
2019-02-20T21:53:55.433Z,99529.72
2019-02-20T21:56:29.468Z,99532.13
2019-02-20T21:59:03.530Z,99530.88
2019-02-20T22:01:37.598Z,99531.91
2019-02-20T22:04:12.356Z,99532.19
2019-02-20T22:06:46.733Z,99533.38
2019-02-20T22:09:21.264Z,99530.68
2019-02-20T22:11:55.300Z,99533.85
2019-02-20T22:14:29.424Z,99536.66
2019-02-20T22:17:03.448Z,99535.45
2019-02-20T22:19:37.521Z,99533.63
2019-02-20T22:22:11.537Z,99531.89
2019-02-20T22:24:47.152Z,99541.84
2019-02-20T22:27:21.186Z,99545.88
2019-02-20T22:29:55.636Z,99537.89
2019-02-20T22:32:29.648Z,99539.08
2019-02-20T22:35:03.695Z,99537.06
2019-02-20T22:37:55.525Z,99535.50
2019-02-20T22:40:47.379Z,99539.98
2019-02-20T22:43:21.430Z,99541.76
2019-02-20T22:45:55.880Z,99546.72
2019-02-20T22:51:22.228Z,99549.06
2019-02-20T22:53:56.276Z,99557.05
2019-02-20T22:56:30.314Z,99560.01
2019-02-20T22:59:04.368Z,99554.84
2019-02-20T23:01:41.417Z,99554.98
2019-02-20T23:04:34.976Z,99554.14
2019-02-20T23:07:09.125Z,99563.83
2019-02-20T23:09:43.141Z,99566.95
2019-02-20T23:12:17.769Z,99566.53
2019-02-20T23:14:51.778Z,99573.30
2019-02-20T23:17:21.358Z,99577.89
2019-02-20T23:19:50.950Z,99575.81
2019-02-20T23:22:23.810Z,99581.22
2019-02-20T23:24:53.495Z,99583.22
2019-02-20T23:27:23.283Z,99579.20
2019-02-20T23:29:54.469Z,99587.40
2019-02-20T23:32:43.464Z,99589.48
2019-02-20T23:35:14.538Z,99588.39
2019-02-20T23:37:45.190Z,99588.59
2019-02-20T23:40:16.017Z,99591.62
2019-02-20T23:42:45.606Z,99589.33
2019-02-20T23:45:16.760Z,99590.78
2019-02-20T23:47:46.582Z,99588.64
2019-02-20T23:50:17.656Z,99588.73
2019-02-20T23:52:47.233Z,99589.47
2019-02-20T23:55:17.673Z,99593.02
2019-02-20T23:57:47.239Z,99590.83
